createdAt,value
2023-11-11T00:00:02.804Z,24.13
2023-11-11T00:02:40.729Z,24.63
2023-11-11T00:05:19.096Z,23.35
2023-11-11T00:07:53.714Z,22.35
2023-11-11T00:10:31.616Z,20.98
2023-11-11T00:13:07.956Z,22.00
2023-11-11T00:15:45.140Z,27.70
2023-11-11T00:18:23.464Z,35.33
2023-11-11T00:21:03.698Z,31.00
2023-11-11T00:23:39.905Z,27.48
2023-11-11T00:29:00.236Z,24.35
2023-11-11T00:31:41.284Z,24.77
2023-11-11T00:34:16.855Z,21.90
2023-11-11T00:36:57.456Z,23.15
2023-11-11T00:39:36.632Z,24.42
2023-11-11T00:42:15.781Z,23.00
2023-11-11T00:44:51.426Z,27.98
2023-11-11T00:47:30.694Z,25.70
2023-11-11T00:50:10.952Z,27.95
2023-11-11T00:52:51.517Z,27.55
2023-11-11T00:55:29.349Z,26.65
2023-11-11T00:58:03.743Z,22.80
2023-11-11T01:00:54.436Z,24.88
2023-11-11T01:03:34.253Z,22.75
2023-11-11T01:06:12.388Z,22.08
2023-11-11T01:08:54.693Z,23.70
2023-11-11T01:11:30.426Z,23.38
2023-11-11T01:14:06.614Z,23.45
2023-11-11T01:19:20.794Z,22.45
2023-11-11T01:21:58.422Z,23.73
2023-11-11T01:24:38.582Z,22.42
2023-11-11T01:27:15.405Z,24.20
2023-11-11T01:29:49.544Z,19.67
2023-11-11T01:32:27.938Z,22.83
2023-11-11T01:35:04.951Z,23.42
2023-11-11T01:37:40.442Z,21.15
2023-11-11T01:40:22.855Z,21.00
2023-11-11T01:43:00.405Z,20.35
2023-11-11T01:45:38.202Z,23.13
2023-11-11T01:48:14.702Z,22.90
2023-11-11T01:50:53.153Z,23.50
2023-11-11T01:53:29.132Z,21.50
2023-11-11T01:56:10.585Z,17.88
2023-11-11T01:58:48.308Z,23.53
2023-11-11T02:01:25.622Z,21.23
2023-11-11T02:04:01.254Z,22.97
2023-11-11T02:06:37.901Z,22.08
2023-11-11T02:09:16.644Z,21.50
2023-11-11T02:11:53.042Z,22.33
2023-11-11T02:14:35.961Z,21.40
2023-11-11T02:17:11.445Z,20.30
2023-11-11T02:19:47.108Z,21.63
2023-11-11T02:22:24.376Z,20.05
2023-11-11T02:25:03.812Z,20.60
2023-11-11T02:27:39.446Z,21.10
2023-11-11T02:30:16.880Z,21.80
2023-11-11T02:32:52.623Z,22.17
2023-11-11T02:35:33.054Z,22.08
2023-11-11T02:38:09.321Z,22.55
2023-11-11T02:40:51.818Z,22.70
2023-11-11T02:43:23.656Z,23.25
2023-11-11T02:45:59.888Z,23.35
2023-11-11T02:48:35.536Z,27.40
2023-11-11T02:51:12.597Z,23.05
2023-11-11T02:53:48.223Z,23.50
2023-11-11T02:56:28.077Z,21.83
2023-11-11T02:59:02.336Z,22.85
2023-11-11T03:01:39.493Z,23.55
2023-11-11T03:04:18.161Z,23.20
2023-11-11T03:06:54.416Z,23.65
2023-11-11T03:09:33.667Z,21.80
2023-11-11T03:12:14.057Z,22.90
2023-11-11T03:14:51.847Z,23.20
2023-11-11T03:17:27.785Z,20.75
2023-11-11T03:20:06.488Z,20.58
2023-11-11T03:22:42.294Z,22.55
2023-11-11T03:25:19.886Z,21.88
2023-11-11T03:27:58.727Z,21.10
2023-11-11T03:30:35.296Z,22.75
2023-11-11T03:33:12.334Z,20.65
2023-11-11T03:35:52.509Z,22.83
2023-11-11T03:38:29.823Z,23.63
2023-11-11T03:41:06.255Z,22.30
2023-11-11T03:43:44.782Z,21.10
2023-11-11T03:46:22.089Z,24.00
2023-11-11T03:49:07.240Z,24.15
2023-11-11T03:51:44.837Z,23.77
2023-11-11T03:54:20.606Z,23.65
2023-11-11T03:56:56.282Z,21.02
2023-11-11T03:59:36.846Z,21.67
2023-11-11T04:02:12.853Z,22.00
2023-11-11T04:07:27.229Z,21.05
2023-11-11T04:10:02.755Z,22.35
2023-11-11T04:12:40.603Z,23.05
2023-11-11T04:15:19.478Z,22.60
2023-11-11T04:17:59.388Z,24.27
2023-11-11T04:20:36.143Z,24.75
2023-11-11T04:23:11.446Z,23.23
2023-11-11T04:25:47.973Z,23.23
2023-11-11T04:28:21.912Z,24.35
2023-11-11T04:31:00.632Z,21.92
2023-11-11T04:33:36.756Z,22.67
2023-11-11T04:38:47.207Z,22.37
2023-11-11T04:41:22.468Z,22.73
2023-11-11T04:43:58.096Z,22.60
2023-11-11T04:46:38.649Z,21.45
2023-11-11T04:49:25.958Z,20.35
2023-11-11T04:51:59.899Z,21.90
2023-11-11T04:54:35.714Z,21.17
2023-11-11T04:57:12.607Z,19.90
2023-11-11T04:59:48.505Z,20.63
2023-11-11T05:02:27.385Z,21.80
2023-11-11T05:05:04.533Z,21.25
2023-11-11T05:07:40.803Z,21.33
2023-11-11T05:10:21.157Z,20.10
2023-11-11T05:12:57.969Z,19.98
2023-11-11T05:15:36.246Z,18.85
2023-11-11T05:18:14.040Z,17.45
2023-11-11T05:20:47.355Z,18.38
2023-11-11T05:23:21.838Z,17.20
2023-11-11T05:25:58.601Z,17.75
2023-11-11T05:28:34.502Z,18.00
2023-11-11T05:31:11.210Z,18.60
2023-11-11T05:33:48.687Z,20.25
2023-11-11T05:36:25.402Z,19.02
2023-11-11T05:39:01.095Z,18.33
2023-11-11T05:41:39.563Z,16.33
2023-11-11T05:44:16.301Z,17.63
2023-11-11T05:46:50.639Z,17.30
2023-11-11T05:49:28.996Z,17.75
2023-11-11T05:52:04.282Z,17.30
2023-11-11T05:54:38.814Z,17.60
2023-11-11T05:57:16.741Z,14.53
2023-11-11T05:59:54.151Z,14.05
2023-11-11T06:02:29.443Z,13.85
2023-11-11T06:05:07.842Z,13.57
2023-11-11T06:07:42.359Z,16.27
2023-11-11T06:10:21.392Z,14.73
2023-11-11T06:12:59.232Z,16.65
2023-11-11T06:15:36.977Z,16.55
2023-11-11T06:18:13.458Z,16.50
2023-11-11T06:20:52.141Z,16.70
2023-11-11T06:26:04.554Z,16.23
2023-11-11T06:28:41.350Z,16.00
2023-11-11T06:31:16.551Z,15.55
2023-11-11T06:33:52.884Z,16.77
2023-11-11T06:36:31.491Z,19.80
2023-11-11T06:39:10.274Z,18.50
2023-11-11T06:41:47.989Z,18.42
2023-11-11T06:44:21.879Z,17.57
2023-11-11T06:46:57.080Z,18.38
2023-11-11T06:49:32.271Z,20.05
2023-11-11T06:52:09.958Z,18.40
2023-11-11T06:54:48.101Z,18.95
2023-11-11T06:57:24.255Z,19.90
2023-11-11T07:00:02.290Z,19.05
2023-11-11T07:02:40.115Z,23.30
2023-11-11T07:05:16.456Z,19.30
2023-11-11T07:07:55.724Z,19.90
2023-11-11T07:10:31.917Z,18.13
2023-11-11T07:13:10.640Z,17.05
2023-11-11T07:15:47.060Z,19.55
2023-11-11T07:18:21.242Z,20.25
2023-11-11T07:20:57.045Z,17.33
2023-11-11T07:23:37.974Z,20.73
2023-11-11T07:26:13.435Z,19.08
2023-11-11T07:28:50.309Z,18.20
2023-11-11T07:31:26.764Z,17.48
2023-11-11T07:34:02.315Z,17.93
2023-11-11T07:36:40.306Z,18.95
2023-11-11T07:39:18.131Z,19.13
2023-11-11T07:41:52.502Z,21.35
2023-11-11T07:44:28.660Z,19.88
2023-11-11T07:49:37.672Z,18.33
2023-11-11T07:52:12.508Z,20.00
2023-11-11T07:54:50.139Z,18.95
2023-11-11T07:58:36.144Z,21.02
2023-11-11T08:00:25.838Z,20.40
2023-11-11T08:03:00.375Z,21.50
2023-11-11T08:05:35.154Z,19.07
2023-11-11T08:08:16.038Z,20.10
2023-11-11T08:10:56.415Z,18.45
2023-11-11T08:13:31.948Z,18.58
2023-11-11T08:16:09.773Z,16.65
2023-11-11T08:18:48.446Z,16.77
2023-11-11T08:21:30.877Z,16.48
2023-11-11T08:24:10.300Z,25.27
2023-11-11T08:26:47.271Z,20.37
2023-11-11T08:29:23.125Z,18.92
2023-11-11T08:31:58.757Z,15.90
2023-11-11T08:34:38.416Z,17.30
2023-11-11T08:37:22.658Z,16.33
2023-11-11T08:39:58.269Z,18.35
2023-11-11T08:42:40.906Z,16.45
2023-11-11T08:45:15.878Z,16.60
2023-11-11T08:47:50.850Z,19.75
2023-11-11T08:50:30.506Z,17.45
2023-11-11T08:53:07.659Z,17.85
2023-11-11T08:55:43.191Z,17.70
2023-11-11T08:58:21.056Z,17.30
2023-11-11T09:00:59.581Z,19.15
2023-11-11T09:03:51.593Z,18.02
2023-11-11T09:06:26.748Z,19.35
2023-11-11T09:09:04.409Z,17.02
2023-11-11T09:11:42.008Z,18.35
2023-11-11T09:14:16.024Z,17.70
2023-11-11T09:16:56.194Z,18.63
2023-11-11T09:19:32.678Z,20.63
2023-11-11T09:22:08.193Z,19.23
2023-11-11T09:24:43.056Z,20.08
2023-11-11T09:27:18.176Z,20.80
2023-11-11T09:29:52.663Z,19.83
2023-11-11T09:32:31.310Z,19.77
2023-11-11T09:35:06.035Z,53.60
2023-11-11T09:37:44.811Z,40.65
2023-11-11T09:40:20.718Z,30.63
2023-11-11T09:42:55.886Z,20.55
2023-11-11T09:45:31.975Z,22.70
2023-11-11T09:50:57.743Z,22.42
2023-11-11T09:53:35.380Z,21.00
2023-11-11T09:57:03.092Z,20.38
2023-11-11T09:59:10.869Z,20.35
2023-11-11T10:01:45.735Z,18.10
2023-11-11T10:04:26.859Z,19.20
2023-11-11T10:07:02.049Z,18.35
2023-11-11T10:09:48.388Z,18.47
2023-11-11T10:12:23.938Z,18.30
2023-11-11T10:15:03.085Z,17.37
2023-11-11T10:17:44.294Z,19.05
2023-11-11T10:20:29.030Z,20.05
2023-11-11T10:25:59.932Z,17.60
2023-11-11T10:28:39.051Z,21.27
2023-11-11T10:31:22.522Z,19.40
2023-11-11T10:33:59.171Z,18.35
2023-11-11T10:36:42.512Z,16.80
2023-11-11T10:39:23.507Z,16.60
2023-11-11T10:41:58.600Z,17.45
2023-11-11T10:44:34.304Z,17.30
2023-11-11T10:47:09.333Z,17.17
2023-11-11T10:49:43.717Z,16.83
2023-11-11T10:52:21.579Z,15.68
2023-11-11T10:54:58.159Z,16.10
2023-11-11T10:57:32.559Z,17.20
2023-11-11T11:00:18.463Z,16.00
2023-11-11T11:02:57.045Z,16.52
2023-11-11T11:05:35.982Z,15.68
2023-11-11T11:08:16.637Z,15.40
2023-11-11T11:10:56.347Z,16.20
2023-11-11T11:13:31.977Z,16.80
2023-11-11T11:16:07.670Z,16.75
2023-11-11T11:18:45.151Z,19.00
2023-11-11T11:21:22.448Z,14.88
2023-11-11T11:24:01.687Z,15.80
2023-11-11T11:26:39.807Z,15.40
2023-11-11T11:29:16.440Z,17.90
2023-11-11T11:32:11.412Z,15.90
2023-11-11T11:34:48.452Z,20.23
2023-11-11T11:37:24.660Z,16.58
2023-11-11T11:42:44.214Z,13.50
2023-11-11T11:45:18.962Z,13.55
2023-11-11T11:47:54.271Z,14.00
2023-11-11T11:50:30.999Z,13.65
2023-11-11T11:53:06.033Z,15.30
2023-11-11T11:55:45.521Z,15.30
2023-11-11T11:58:21.566Z,14.40
2023-11-11T12:03:30.725Z,16.10
2023-11-11T12:06:06.005Z,14.75
2023-11-11T12:08:40.939Z,15.20
2023-11-11T12:11:18.655Z,16.88
2023-11-11T12:13:56.400Z,14.57
2023-11-11T12:16:30.637Z,16.47
2023-11-11T12:19:14.433Z,15.60
2023-11-11T12:21:52.088Z,15.70
2023-11-11T12:24:27.819Z,14.93
2023-11-11T12:27:06.250Z,14.98
2023-11-11T12:29:37.694Z,13.52
2023-11-11T12:32:17.626Z,14.57
2023-11-11T12:34:53.180Z,14.18
2023-11-11T12:37:27.613Z,13.70
2023-11-11T12:40:03.074Z,14.93
2023-11-11T12:42:41.674Z,12.90
2023-11-11T12:45:20.869Z,14.48
2023-11-11T12:47:58.925Z,12.30
2023-11-11T12:50:36.534Z,14.35
2023-11-11T12:53:12.536Z,12.57
2023-11-11T12:58:30.000Z,13.07
2023-11-11T13:01:06.434Z,13.02
2023-11-11T13:03:41.417Z,13.27
2023-11-11T13:06:17.475Z,12.00
2023-11-11T13:11:26.352Z,13.07
2023-11-11T13:14:03.742Z,14.65
2023-11-11T13:16:38.543Z,12.82
2023-11-11T13:19:14.006Z,13.70
2023-11-11T13:21:49.226Z,14.03
2023-11-11T13:24:24.806Z,13.47
2023-11-11T13:26:59.974Z,13.45
2023-11-11T13:29:37.445Z,11.40
2023-11-11T13:32:13.257Z,12.17
2023-11-11T13:34:47.896Z,13.40
2023-11-11T13:37:27.495Z,12.35
2023-11-11T13:40:20.761Z,12.32
2023-11-11T13:42:55.335Z,12.35
2023-11-11T13:45:32.814Z,13.07
2023-11-11T13:48:08.803Z,12.65
2023-11-11T13:53:17.767Z,11.05
2023-11-11T13:55:53.145Z,10.38
2023-11-11T13:58:28.517Z,10.05
2023-11-11T14:01:06.487Z,8.95
2023-11-11T14:03:41.407Z,12.55
2023-11-11T14:06:18.384Z,11.55
2023-11-11T14:08:52.739Z,11.73
2023-11-11T14:11:29.005Z,8.07
2023-11-11T14:14:03.532Z,10.93
2023-11-11T14:16:41.938Z,10.45
2023-11-11T14:19:16.753Z,10.57
2023-11-11T14:21:51.987Z,9.88
2023-11-11T14:24:26.898Z,11.80
2023-11-11T14:27:03.832Z,12.40
2023-11-11T14:29:41.325Z,12.75
2023-11-11T14:32:20.627Z,12.55
2023-11-11T14:34:55.927Z,12.52
2023-11-11T14:37:30.687Z,13.43
2023-11-11T14:40:06.867Z,14.40
2023-11-11T14:42:41.698Z,16.98
2023-11-11T14:45:17.217Z,19.55
2023-11-11T14:47:55.141Z,18.80
2023-11-11T14:50:30.070Z,18.73
2023-11-11T14:53:04.919Z,17.10
2023-11-11T14:55:39.648Z,15.93
2023-11-11T14:58:15.155Z,15.90
2023-11-11T15:00:49.982Z,14.80
2023-11-11T15:03:27.566Z,16.92
2023-11-11T15:06:02.829Z,15.10
2023-11-11T15:08:38.154Z,16.50
2023-11-11T15:11:13.260Z,17.30
2023-11-11T15:13:47.751Z,18.48
2023-11-11T15:16:23.531Z,19.55
2023-11-11T15:19:04.242Z,21.60
2023-11-11T15:21:39.172Z,21.92
2023-11-11T15:24:14.360Z,21.30
2023-11-11T15:26:49.372Z,23.37
2023-11-11T15:29:24.485Z,24.30
2023-11-11T15:32:00.691Z,24.10
2023-11-11T15:34:39.669Z,25.30
2023-11-11T15:37:15.676Z,24.43
2023-11-11T15:42:27.405Z,19.73
2023-11-11T15:45:03.065Z,22.65
2023-11-11T15:47:37.621Z,24.25
2023-11-11T15:50:15.817Z,23.97
2023-11-11T15:52:50.858Z,23.63
2023-11-11T15:55:27.244Z,24.10
2023-11-11T15:58:01.444Z,24.95
2023-11-11T16:00:38.106Z,23.13
2023-11-11T16:03:13.019Z,25.65
2023-11-11T16:05:52.196Z,24.75
2023-11-11T16:08:27.332Z,25.25
2023-11-11T16:11:01.528Z,24.67
2023-11-11T16:13:36.416Z,25.65
2023-11-11T16:16:11.872Z,25.85
2023-11-11T16:18:46.898Z,24.42
2023-11-11T16:21:27.511Z,23.67
2023-11-11T16:24:16.401Z,27.17
2023-11-11T16:26:58.650Z,27.40
2023-11-11T16:29:33.970Z,30.70
2023-11-11T16:32:09.676Z,30.80
2023-11-11T16:34:45.069Z,30.92
2023-11-11T16:37:22.597Z,32.38
2023-11-11T16:39:57.957Z,30.80
2023-11-11T16:42:32.809Z,29.15
2023-11-11T16:45:09.914Z,30.40
2023-11-11T16:47:44.448Z,31.85
2023-11-11T16:50:19.307Z,29.83
2023-11-11T16:52:56.094Z,31.70
2023-11-11T16:55:30.444Z,32.78
2023-11-11T16:58:05.614Z,32.30
2023-11-11T17:00:42.034Z,30.87
2023-11-11T17:03:16.561Z,32.88
2023-11-11T17:05:51.465Z,33.22
2023-11-11T17:08:28.549Z,33.30
2023-11-11T17:11:04.818Z,33.03
2023-11-11T17:13:41.282Z,34.30
2023-11-11T17:16:15.525Z,33.67
2023-11-11T17:18:50.423Z,32.90
2023-11-11T17:21:24.899Z,36.00
2023-11-11T17:24:02.671Z,36.63
2023-11-11T17:26:38.592Z,39.15
2023-11-11T17:29:12.483Z,40.17
2023-11-11T17:31:47.246Z,41.85
2023-11-11T17:34:21.735Z,44.22
2023-11-11T17:36:56.469Z,50.55
2023-11-11T17:39:33.091Z,49.55
2023-11-11T17:42:08.537Z,45.05
2023-11-11T17:44:44.239Z,47.20
2023-11-11T17:47:19.193Z,46.37
2023-11-11T17:49:53.510Z,42.97
2023-11-11T17:52:27.762Z,41.17
2023-11-11T17:55:06.696Z,35.28
2023-11-11T17:57:41.618Z,34.75
2023-11-11T18:00:19.350Z,35.07
2023-11-11T18:02:53.929Z,34.05
2023-11-11T18:05:28.541Z,34.90
2023-11-11T18:08:03.810Z,32.37
2023-11-11T18:10:41.214Z,34.70
2023-11-11T18:13:15.450Z,33.30
2023-11-11T18:15:49.456Z,38.40
2023-11-11T18:18:23.478Z,36.55
2023-11-11T18:20:59.381Z,37.58
2023-11-11T18:23:33.519Z,34.63
2023-11-11T18:26:11.432Z,31.60
2023-11-11T18:28:47.679Z,34.20
2023-11-11T18:31:22.792Z,33.22
2023-11-11T18:33:57.524Z,34.80
2023-11-11T18:36:34.278Z,34.80
2023-11-11T18:39:08.666Z,33.90
2023-11-11T18:41:46.062Z,31.83
2023-11-11T18:44:20.842Z,30.65
2023-11-11T18:46:55.775Z,31.70
2023-11-11T18:49:30.668Z,29.67
2023-11-11T18:52:05.482Z,27.05
2023-11-11T18:54:40.409Z,25.55
2023-11-11T18:57:17.298Z,24.65
2023-11-11T18:59:52.170Z,24.02
2023-11-11T19:02:26.830Z,22.65
2023-11-11T19:05:01.824Z,21.60
2023-11-11T19:07:36.459Z,23.25
2023-11-11T19:10:11.580Z,20.35
2023-11-11T19:12:49.338Z,18.45
2023-11-11T19:15:24.802Z,21.90
2023-11-11T19:17:59.518Z,20.90
2023-11-11T19:20:34.630Z,22.00
2023-11-11T19:23:09.592Z,19.85
2023-11-11T19:25:44.498Z,20.40
2023-11-11T19:28:21.303Z,19.35
2023-11-11T19:30:55.602Z,18.77
2023-11-11T19:33:30.666Z,20.80
2023-11-11T19:36:05.637Z,19.40
2023-11-11T19:38:40.560Z,19.85
2023-11-11T19:41:16.912Z,18.80
2023-11-11T19:43:54.413Z,18.27
2023-11-11T19:46:28.648Z,20.08
2023-11-11T19:49:06.378Z,19.90
2023-11-11T19:51:42.032Z,21.25
2023-11-11T19:54:17.623Z,22.10
2023-11-11T19:56:53.572Z,21.98
2023-11-11T19:59:33.858Z,19.85
2023-11-11T20:02:10.546Z,19.67
2023-11-11T20:04:48.068Z,20.35
2023-11-11T20:07:22.824Z,18.85
2023-11-11T20:09:57.590Z,18.65
2023-11-11T20:12:32.607Z,18.30
2023-11-11T20:15:13.305Z,19.80
2023-11-11T20:17:47.538Z,16.38
2023-11-11T20:20:22.619Z,16.00
2023-11-11T20:22:58.390Z,16.77
2023-11-11T20:25:33.134Z,14.05
2023-11-11T20:28:07.657Z,13.82
2023-11-11T20:30:45.482Z,14.25
2023-11-11T20:33:20.821Z,13.93
2023-11-11T20:35:56.164Z,12.30
2023-11-11T20:38:33.370Z,13.48
2023-11-11T20:41:07.881Z,13.43
2023-11-11T20:43:42.965Z,13.57
2023-11-11T20:46:28.211Z,13.93
2023-11-11T20:49:03.720Z,11.55
2023-11-11T20:51:38.594Z,11.80
2023-11-11T20:54:14.337Z,12.00
2023-11-11T20:56:48.690Z,12.70
2023-11-11T20:59:24.738Z,12.90
2023-11-11T21:04:37.277Z,11.70
2023-11-11T21:07:11.960Z,11.20
2023-11-11T21:09:46.596Z,12.35
2023-11-11T21:12:22.317Z,12.48
2023-11-11T21:14:56.727Z,11.50
2023-11-11T21:17:34.419Z,10.95
2023-11-11T21:20:11.497Z,11.00
2023-11-11T21:22:47.136Z,9.95
2023-11-11T21:25:24.401Z,9.82
2023-11-11T21:28:00.205Z,9.80
2023-11-11T21:30:34.678Z,9.25
2023-11-11T21:33:08.837Z,9.65
2023-11-11T21:35:46.671Z,8.85
2023-11-11T21:38:25.191Z,9.13
2023-11-11T21:40:59.518Z,8.88
2023-11-11T21:43:34.673Z,7.90
2023-11-11T21:46:09.730Z,9.18
2023-11-11T21:48:44.685Z,8.68
2023-11-11T21:51:22.205Z,8.23
2023-11-11T21:53:56.509Z,8.35
2023-11-11T21:56:30.670Z,9.10
2023-11-11T21:59:05.568Z,9.90
2023-11-11T22:01:43.748Z,9.55
2023-11-11T22:04:18.615Z,8.80
2023-11-11T22:06:56.179Z,9.13
2023-11-11T22:09:33.093Z,8.25
2023-11-11T22:12:09.844Z,9.05
2023-11-11T22:14:44.383Z,8.20
2023-11-11T22:17:18.615Z,8.43
2023-11-11T22:19:54.451Z,8.40
2023-11-11T22:22:33.701Z,7.88
2023-11-11T22:25:10.715Z,7.97
2023-11-11T22:27:46.215Z,7.40
2023-11-11T22:30:20.926Z,8.20
2023-11-11T22:32:55.776Z,7.70
2023-11-11T22:35:31.589Z,7.85
2023-11-11T22:38:10.980Z,7.13
2023-11-11T22:40:47.466Z,6.93
2023-11-11T22:43:23.218Z,7.35
2023-11-11T22:45:58.079Z,7.88
2023-11-11T22:48:32.704Z,7.70
2023-11-11T22:51:09.762Z,7.07
2023-11-11T22:53:48.136Z,7.22
2023-11-11T22:56:22.874Z,6.13
2023-11-11T22:58:58.958Z,6.35
2023-11-11T23:06:46.611Z,6.22
2023-11-11T23:09:22.655Z,5.87
2023-11-11T23:14:32.861Z,5.85
2023-11-11T23:17:10.013Z,5.20
2023-11-11T23:19:45.054Z,5.03
2023-11-11T23:22:20.231Z,4.82
2023-11-11T23:24:57.258Z,5.78
2023-11-11T23:27:31.807Z,4.63
2023-11-11T23:30:07.644Z,4.70
2023-11-11T23:32:42.950Z,4.47
2023-11-11T23:35:18.465Z,4.38
2023-11-11T23:37:53.686Z,3.80
2023-11-11T23:40:31.622Z,4.10
2023-11-11T23:43:06.848Z,4.93
2023-11-11T23:45:41.633Z,4.13
2023-11-11T23:48:20.540Z,3.57
2023-11-11T23:50:56.769Z,3.95
2023-11-11T23:56:09.380Z,3.60
2023-11-11T23:58:43.871Z,4.10
